createdAt,value
2018-08-19T00:00:43.128Z,3.83
2018-08-19T00:03:11.416Z,3.83
2018-08-19T00:05:39.656Z,4.40
2018-08-19T00:08:07.952Z,3.93
2018-08-19T00:10:45.518Z,4.03
2018-08-19T00:13:13.749Z,4.40
2018-08-19T00:15:42.093Z,4.10
2018-08-19T00:18:11.920Z,4.13
2018-08-19T00:20:40.153Z,4.13
2018-08-19T00:23:09.047Z,4.30
2018-08-19T00:25:39.528Z,4.20
2018-08-19T00:28:09.526Z,3.57
2018-08-19T00:30:37.780Z,4.37
2018-08-19T00:33:06.161Z,4.40
2018-08-19T00:35:34.388Z,4.50
2018-08-19T00:38:02.758Z,4.23
2018-08-19T00:40:31.228Z,4.07
2018-08-19T00:42:59.929Z,4.27
2018-08-19T00:45:28.525Z,3.90
2018-08-19T00:47:56.790Z,4.10
2018-08-19T00:50:25.620Z,4.57
2018-08-19T00:52:54.616Z,4.10
2018-08-19T00:55:23.011Z,4.43
2018-08-19T00:58:00.053Z,4.17
2018-08-19T01:00:29.310Z,4.00
2018-08-19T01:02:57.550Z,3.70
2018-08-19T01:05:25.788Z,3.80
2018-08-19T01:07:54.016Z,4.00
2018-08-19T01:10:22.263Z,3.27
2018-08-19T01:12:50.488Z,3.73
2018-08-19T01:15:18.764Z,4.17
2018-08-19T01:17:47.029Z,3.37
2018-08-19T01:20:19.817Z,3.33
2018-08-19T01:22:48.072Z,3.97
2018-08-19T01:25:16.605Z,3.67
2018-08-19T01:27:44.852Z,3.67
2018-08-19T01:30:21.184Z,3.73
2018-08-19T01:32:49.444Z,3.73
2018-08-19T01:35:18.187Z,3.60
2018-08-19T01:37:46.389Z,3.53
2018-08-19T01:40:17.697Z,3.50
2018-08-19T01:42:46.504Z,3.27
2018-08-19T01:45:14.725Z,3.50
2018-08-19T01:47:42.929Z,3.80
2018-08-19T01:50:13.304Z,3.93
2018-08-19T01:52:42.289Z,3.53
2018-08-19T01:55:10.625Z,3.10
2018-08-19T01:57:44.832Z,4.10
2018-08-19T02:00:13.844Z,3.60
2018-08-19T02:02:54.756Z,3.23
2018-08-19T02:05:23.556Z,3.33
2018-08-19T02:07:53.252Z,3.83
2018-08-19T02:10:22.236Z,3.60
2018-08-19T02:12:51.684Z,3.10
2018-08-19T02:15:20.965Z,3.37
2018-08-19T02:17:54.924Z,3.37
2018-08-19T02:20:27.617Z,3.53
2018-08-19T02:22:58.566Z,3.80
2018-08-19T02:25:27.568Z,3.80
2018-08-19T02:27:55.788Z,4.20
2018-08-19T02:30:24.051Z,4.50
2018-08-19T02:32:53.954Z,3.87
2018-08-19T02:35:22.164Z,4.60
2018-08-19T02:37:50.368Z,4.37
2018-08-19T02:40:24.812Z,4.90
2018-08-19T02:42:53.064Z,5.23
2018-08-19T02:45:21.275Z,5.17
2018-08-19T02:47:49.488Z,4.73
2018-08-19T02:50:17.729Z,4.53
2018-08-19T02:52:45.933Z,4.43
2018-08-19T02:55:14.132Z,3.83
2018-08-19T02:57:42.348Z,4.53
2018-08-19T03:00:12.192Z,4.93
2018-08-19T03:02:41.516Z,4.07
2018-08-19T03:05:10.923Z,4.43
2018-08-19T03:07:39.184Z,4.50
2018-08-19T03:10:10.452Z,4.70
2018-08-19T03:12:39.089Z,5.10
2018-08-19T03:15:08.484Z,4.67
2018-08-19T03:17:36.685Z,4.70
2018-08-19T03:20:06.793Z,5.17
2018-08-19T03:22:35.006Z,4.40
2018-08-19T03:25:03.380Z,5.37
2018-08-19T03:27:32.837Z,5.37
2018-08-19T03:30:03.227Z,5.37
2018-08-19T03:32:31.471Z,5.30
2018-08-19T03:35:05.525Z,5.33
2018-08-19T03:37:34.266Z,6.13
2018-08-19T03:40:02.557Z,5.70
2018-08-19T03:42:30.781Z,5.63
2018-08-19T03:45:05.951Z,5.83
2018-08-19T03:47:34.154Z,6.27
2018-08-19T03:50:05.740Z,5.20
2018-08-19T03:52:33.932Z,6.20
2018-08-19T03:55:02.192Z,6.33
2018-08-19T03:57:30.394Z,6.27
2018-08-19T03:59:58.600Z,6.47
2018-08-19T04:02:26.822Z,5.07
2018-08-19T04:04:55.020Z,5.70
2018-08-19T04:07:23.229Z,6.10
2018-08-19T04:09:51.460Z,6.10
2018-08-19T04:12:19.709Z,6.13
2018-08-19T04:14:47.921Z,5.77
2018-08-19T04:17:16.158Z,6.03
2018-08-19T04:19:44.352Z,6.27
2018-08-19T04:22:12.589Z,6.33
2018-08-19T04:24:40.809Z,6.40
2018-08-19T04:27:10.881Z,6.63
2018-08-19T04:29:39.562Z,6.30
2018-08-19T04:32:16.105Z,5.83
2018-08-19T04:34:44.393Z,5.60
2018-08-19T04:37:12.604Z,5.30
2018-08-19T04:39:40.825Z,5.67
2018-08-19T04:42:09.067Z,5.10
2018-08-19T04:44:37.261Z,5.70
2018-08-19T04:47:38.694Z,5.47
2018-08-19T04:50:06.906Z,5.47
2018-08-19T04:52:35.124Z,5.57
2018-08-19T04:55:03.328Z,5.47
2018-08-19T04:57:31.540Z,5.37
2018-08-19T04:59:59.780Z,5.60
2018-08-19T05:02:28.024Z,4.67
2018-08-19T05:04:56.218Z,5.80
2018-08-19T05:07:24.436Z,6.03
2018-08-19T05:09:52.628Z,5.83
2018-08-19T05:12:20.832Z,6.40
2018-08-19T05:14:49.028Z,5.80
2018-08-19T05:17:17.218Z,5.63
2018-08-19T05:19:45.416Z,5.97
2018-08-19T05:22:15.309Z,7.00
2018-08-19T05:24:45.180Z,7.00
2018-08-19T05:27:13.718Z,5.67
2018-08-19T05:29:41.916Z,5.63
2018-08-19T05:32:13.568Z,6.03
2018-08-19T05:34:43.096Z,6.77
2018-08-19T05:37:11.345Z,7.17
2018-08-19T05:39:44.561Z,6.77
2018-08-19T05:42:13.400Z,6.27
2018-08-19T05:44:42.397Z,7.17
2018-08-19T05:47:12.050Z,6.93
2018-08-19T05:49:42.556Z,7.33
2018-08-19T05:52:15.084Z,8.27
2018-08-19T05:54:48.856Z,7.30
2018-08-19T05:57:17.787Z,6.60
2018-08-19T05:59:47.301Z,6.83
2018-08-19T06:02:16.209Z,7.47
2018-08-19T06:04:44.721Z,7.90
2018-08-19T06:07:13.041Z,6.40
2018-08-19T06:09:41.384Z,7.70
2018-08-19T06:12:09.813Z,6.87
2018-08-19T06:14:38.038Z,7.60
2018-08-19T06:17:06.313Z,7.53
2018-08-19T06:19:34.584Z,6.90
2018-08-19T06:22:02.842Z,7.73
2018-08-19T06:24:31.073Z,7.43
2018-08-19T06:26:59.440Z,7.23
2018-08-19T06:29:46.640Z,7.93
2018-08-19T06:32:22.134Z,6.70
2018-08-19T06:34:51.258Z,7.63
2018-08-19T06:37:20.397Z,6.33
2018-08-19T06:39:49.397Z,7.40
2018-08-19T06:42:17.836Z,6.10
2018-08-19T06:44:46.118Z,7.20
2018-08-19T06:47:14.352Z,7.13
2018-08-19T06:49:47.820Z,7.53
2018-08-19T06:52:16.159Z,6.57
2018-08-19T06:54:44.372Z,7.37
2018-08-19T06:57:12.617Z,7.07
2018-08-19T06:59:40.920Z,8.00
2018-08-19T07:02:09.280Z,7.00
2018-08-19T07:04:41.931Z,6.70
2018-08-19T07:07:11.940Z,8.20
2018-08-19T07:09:40.644Z,6.87
2018-08-19T07:12:12.069Z,6.90
2018-08-19T07:14:40.288Z,7.07
2018-08-19T07:17:08.556Z,6.97
2018-08-19T07:19:37.710Z,7.23
2018-08-19T07:22:07.204Z,7.37
2018-08-19T07:24:36.652Z,7.17
2018-08-19T07:27:05.149Z,7.57
2018-08-19T07:29:33.406Z,6.50
2018-08-19T07:32:01.668Z,7.30
2018-08-19T07:34:29.889Z,6.47
2018-08-19T07:36:58.559Z,5.77
2018-08-19T07:39:27.404Z,6.13
2018-08-19T07:41:55.705Z,5.50
2018-08-19T07:44:23.924Z,5.60
2018-08-19T07:46:52.136Z,5.33
2018-08-19T07:49:20.353Z,5.00
2018-08-19T07:51:48.753Z,4.87
2018-08-19T07:54:16.949Z,4.90
2018-08-19T07:56:45.164Z,4.60
2018-08-19T07:59:14.812Z,4.70
2018-08-19T08:01:43.063Z,5.03
2018-08-19T08:04:11.273Z,3.80
2018-08-19T08:06:39.484Z,4.40
2018-08-19T08:09:08.937Z,4.33
2018-08-19T08:11:37.425Z,4.63
2018-08-19T08:14:05.981Z,4.00
2018-08-19T08:16:40.043Z,3.87
2018-08-19T08:19:08.300Z,3.57
2018-08-19T08:21:36.649Z,3.37
2018-08-19T08:24:04.870Z,3.63
2018-08-19T08:26:33.174Z,4.03
2018-08-19T08:29:04.309Z,4.00
2018-08-19T08:31:33.920Z,3.60
2018-08-19T08:34:02.199Z,3.63
2018-08-19T08:36:30.388Z,4.20
2018-08-19T08:38:58.640Z,3.50
2018-08-19T08:41:26.868Z,3.30
2018-08-19T08:43:55.083Z,3.93
2018-08-19T08:46:23.383Z,4.03
2018-08-19T08:48:51.640Z,4.23
2018-08-19T08:51:19.878Z,4.17
2018-08-19T08:53:48.097Z,4.80
2018-08-19T08:56:16.424Z,4.50
2018-08-19T08:58:44.594Z,3.83
2018-08-19T09:01:12.844Z,3.23
2018-08-19T09:03:41.113Z,4.03
2018-08-19T09:06:18.265Z,4.60
2018-08-19T09:08:46.541Z,4.23
2018-08-19T09:11:14.797Z,4.20
2018-08-19T09:13:43.095Z,4.20
2018-08-19T09:16:11.348Z,5.30
2018-08-19T09:18:39.608Z,4.40
2018-08-19T09:21:07.961Z,4.23
2018-08-19T09:23:36.205Z,4.03
2018-08-19T09:26:04.473Z,4.27
2018-08-19T09:28:32.729Z,4.13
2018-08-19T09:31:01.037Z,4.03
2018-08-19T09:33:29.229Z,5.17
2018-08-19T09:35:57.453Z,4.30
2018-08-19T09:38:25.698Z,4.67
2018-08-19T09:40:54.046Z,4.30
2018-08-19T09:43:22.266Z,4.13
2018-08-19T09:45:50.517Z,5.20
2018-08-19T09:48:18.897Z,5.77
2018-08-19T09:50:47.152Z,5.33
2018-08-19T09:53:15.452Z,5.37
2018-08-19T09:55:45.104Z,4.87
2018-08-19T09:58:15.216Z,4.97
2018-08-19T10:00:48.876Z,5.77
2018-08-19T10:03:17.416Z,5.37
2018-08-19T10:05:45.644Z,5.03
2018-08-19T10:08:13.973Z,5.03
2018-08-19T10:10:42.241Z,4.70
2018-08-19T10:13:10.474Z,4.93
2018-08-19T10:15:38.768Z,4.47
2018-08-19T10:18:08.777Z,7.00
2018-08-19T10:20:37.020Z,6.60
2018-08-19T10:23:05.316Z,5.90
2018-08-19T10:25:33.572Z,5.90
2018-08-19T10:28:01.797Z,6.63
2018-08-19T10:30:30.072Z,5.57
2018-08-19T10:33:05.892Z,5.33
2018-08-19T10:35:34.805Z,5.40
2018-08-19T10:38:03.764Z,5.33
2018-08-19T10:40:32.076Z,4.80
2018-08-19T10:43:02.645Z,6.17
2018-08-19T10:45:30.872Z,5.47
2018-08-19T10:47:59.141Z,4.87
2018-08-19T10:50:29.861Z,5.17
2018-08-19T10:52:58.142Z,4.73
2018-08-19T10:55:26.852Z,5.47
2018-08-19T10:57:55.373Z,5.10
2018-08-19T11:00:30.792Z,5.07
2018-08-19T11:03:07.471Z,5.40
2018-08-19T11:05:39.394Z,5.03
2018-08-19T11:08:07.980Z,5.37
2018-08-19T11:10:36.261Z,4.90
2018-08-19T11:13:04.633Z,4.83
2018-08-19T11:15:44.492Z,4.80
2018-08-19T11:18:24.268Z,6.03
2018-08-19T11:20:56.243Z,5.73
2018-08-19T11:23:25.883Z,5.00
2018-08-19T11:25:54.986Z,5.40
2018-08-19T11:28:33.329Z,5.00
2018-08-19T11:31:01.704Z,4.97
2018-08-19T11:33:37.602Z,5.07
2018-08-19T11:36:06.060Z,4.50
2018-08-19T11:38:34.335Z,4.80
2018-08-19T11:41:06.074Z,5.37
2018-08-19T11:43:37.708Z,5.93
2018-08-19T11:46:06.680Z,5.57
2018-08-19T11:48:35.604Z,4.93
2018-08-19T11:51:03.820Z,5.70
2018-08-19T11:53:32.354Z,5.93
2018-08-19T11:56:00.716Z,5.80
2018-08-19T11:58:39.572Z,6.30
2018-08-19T12:01:16.348Z,6.80
2018-08-19T12:03:57.061Z,5.10
2018-08-19T12:06:26.661Z,5.27
2018-08-19T12:08:56.493Z,5.60
2018-08-19T12:11:29.489Z,4.63
2018-08-19T12:13:57.777Z,4.90
2018-08-19T12:16:27.193Z,5.20
2018-08-19T12:19:00.661Z,5.37
2018-08-19T12:21:30.013Z,5.43
2018-08-19T12:24:14.636Z,5.47
2018-08-19T12:26:43.408Z,5.67
2018-08-19T12:29:12.069Z,6.80
2018-08-19T12:31:40.405Z,5.23
2018-08-19T12:34:08.693Z,6.77
2018-08-19T12:36:36.935Z,5.57
2018-08-19T12:39:07.797Z,5.17
2018-08-19T12:41:40.204Z,5.33
2018-08-19T12:44:08.507Z,4.97
2018-08-19T12:46:36.713Z,5.87
2018-08-19T12:49:05.209Z,5.03
2018-08-19T12:51:33.427Z,5.23
2018-08-19T12:54:01.914Z,5.20
2018-08-19T12:56:30.181Z,4.77
2018-08-19T12:58:58.424Z,5.33
2018-08-19T13:01:26.719Z,5.40
2018-08-19T13:03:54.969Z,5.27
2018-08-19T13:06:23.176Z,5.43
2018-08-19T13:08:51.399Z,6.03
2018-08-19T13:11:19.601Z,5.23
2018-08-19T13:13:47.853Z,4.73
2018-08-19T13:16:16.149Z,5.67
2018-08-19T13:18:44.332Z,5.67
2018-08-19T13:21:16.980Z,5.90
2018-08-19T13:23:45.309Z,5.77
2018-08-19T13:26:13.548Z,5.93
2018-08-19T13:28:49.047Z,5.03
2018-08-19T13:31:21.412Z,5.33
2018-08-19T13:33:49.633Z,4.90
2018-08-19T13:36:17.878Z,6.20
2018-08-19T13:38:46.137Z,5.30
2018-08-19T13:41:14.412Z,5.53
2018-08-19T13:43:42.700Z,5.77
2018-08-19T13:46:10.933Z,6.93
2018-08-19T13:48:39.166Z,5.40
2018-08-19T13:51:07.389Z,5.23
2018-08-19T13:53:35.628Z,4.90
2018-08-19T13:56:03.872Z,5.43
2018-08-19T13:58:32.090Z,5.10
2018-08-19T14:01:00.354Z,5.20
2018-08-19T14:03:28.582Z,5.43
2018-08-19T14:05:56.828Z,5.80
2018-08-19T14:08:25.081Z,5.47
2018-08-19T14:10:53.324Z,6.20
2018-08-19T14:13:21.540Z,5.87
2018-08-19T14:15:49.780Z,5.23
2018-08-19T14:18:18.023Z,5.43
2018-08-19T14:20:46.344Z,5.87
2018-08-19T14:23:14.565Z,5.60
2018-08-19T14:25:42.780Z,5.03
2018-08-19T14:28:11.009Z,5.57
2018-08-19T14:30:39.341Z,5.47
2018-08-19T14:33:08.269Z,5.93
2018-08-19T14:35:36.485Z,6.07
2018-08-19T14:38:04.704Z,5.77
2018-08-19T14:40:33.202Z,5.90
2018-08-19T14:43:01.241Z,6.03
2018-08-19T14:45:29.517Z,5.90
2018-08-19T14:47:57.754Z,6.07
2018-08-19T14:50:25.976Z,6.83
2018-08-19T14:52:54.237Z,6.60
2018-08-19T14:55:22.540Z,6.30
2018-08-19T14:57:50.896Z,6.43
2018-08-19T15:00:19.124Z,5.57
2018-08-19T15:02:47.409Z,6.00
2018-08-19T15:05:17.318Z,5.50
2018-08-19T15:07:45.807Z,5.23
2018-08-19T15:10:17.673Z,6.03
2018-08-19T15:12:45.900Z,5.70
2018-08-19T15:15:14.121Z,5.90
2018-08-19T15:17:46.575Z,5.90
2018-08-19T15:20:19.020Z,6.67
2018-08-19T15:22:47.269Z,5.97
2018-08-19T15:25:15.496Z,6.30
2018-08-19T15:27:49.089Z,6.20
2018-08-19T15:30:22.570Z,6.10
2018-08-19T15:32:51.285Z,7.00
2018-08-19T15:35:19.061Z,6.63
2018-08-19T15:37:47.320Z,7.43
2018-08-19T15:40:25.637Z,6.53
2018-08-19T15:42:53.900Z,6.80
2018-08-19T15:45:22.148Z,6.77
2018-08-19T15:47:50.462Z,6.43
2018-08-19T15:50:21.033Z,6.93
2018-08-19T15:52:49.917Z,6.10
2018-08-19T15:55:18.148Z,6.77
2018-08-19T15:57:46.356Z,6.60
2018-08-19T16:00:14.602Z,7.00
2018-08-19T16:02:42.881Z,7.20
2018-08-19T16:05:15.653Z,6.67
2018-08-19T16:07:44.556Z,8.20
2018-08-19T16:10:13.681Z,8.00
2018-08-19T16:12:47.509Z,7.33
2018-08-19T16:15:21.073Z,7.50
2018-08-19T16:17:49.420Z,7.37
2018-08-19T16:20:17.660Z,7.00
2018-08-19T16:22:45.889Z,7.30
2018-08-19T16:25:14.100Z,7.47
2018-08-19T16:27:42.325Z,6.97
2018-08-19T16:30:10.605Z,6.77
2018-08-19T16:32:38.837Z,8.20
2018-08-19T16:35:07.088Z,7.17
2018-08-19T16:37:35.365Z,7.50
2018-08-19T16:40:04.208Z,7.13
2018-08-19T16:42:32.417Z,6.73
2018-08-19T16:45:00.696Z,6.70
2018-08-19T16:47:28.917Z,6.87
2018-08-19T16:49:57.229Z,6.93
2018-08-19T16:52:25.517Z,7.03
2018-08-19T16:54:53.718Z,6.70
2018-08-19T16:57:22.055Z,6.90
2018-08-19T16:59:50.125Z,6.50
2018-08-19T17:02:18.481Z,7.03
2018-08-19T17:04:46.706Z,6.00
2018-08-19T17:07:14.945Z,6.70
2018-08-19T17:09:43.199Z,6.47
2018-08-19T17:12:11.434Z,6.47
2018-08-19T17:14:39.660Z,7.10
2018-08-19T17:17:08.013Z,7.87
2018-08-19T17:19:36.257Z,7.00
2018-08-19T17:22:08.218Z,6.40
2018-08-19T17:24:36.568Z,6.50
2018-08-19T17:27:10.796Z,6.70
2018-08-19T17:29:39.025Z,6.93
2018-08-19T17:32:07.386Z,7.20
2018-08-19T17:34:38.924Z,7.57
2018-08-19T17:37:07.812Z,6.63
2018-08-19T17:39:36.212Z,6.57
2018-08-19T17:42:04.321Z,6.80
2018-08-19T17:44:32.565Z,7.03
2018-08-19T17:47:00.789Z,7.27
2018-08-19T17:49:30.201Z,7.50
2018-08-19T17:51:59.856Z,7.60
2018-08-19T17:54:29.275Z,6.70
2018-08-19T17:56:58.761Z,6.77
2018-08-19T17:59:27.076Z,7.63
2018-08-19T18:01:55.201Z,6.67
2018-08-19T18:04:27.098Z,7.40
2018-08-19T18:06:55.325Z,6.67
2018-08-19T18:09:24.025Z,6.40
2018-08-19T18:12:00.333Z,6.57
2018-08-19T18:14:30.704Z,6.30
2018-08-19T18:16:58.929Z,7.30
2018-08-19T18:19:27.165Z,6.87
2018-08-19T18:21:55.415Z,7.23
2018-08-19T18:24:24.484Z,6.63
2018-08-19T18:26:52.669Z,6.23
2018-08-19T18:29:20.883Z,6.97
2018-08-19T18:31:49.924Z,6.77
2018-08-19T18:34:18.199Z,6.60
2018-08-19T18:36:46.399Z,6.60
2018-08-19T18:39:14.621Z,6.97
2018-08-19T18:41:43.892Z,6.83
2018-08-19T18:44:12.942Z,6.50
2018-08-19T18:46:41.173Z,6.30
2018-08-19T18:49:14.695Z,6.67
2018-08-19T18:51:45.372Z,6.40
2018-08-19T18:54:24.728Z,6.73
2018-08-19T18:56:52.952Z,7.30
2018-08-19T18:59:21.172Z,6.73
2018-08-19T19:01:49.412Z,6.63
2018-08-19T19:04:17.628Z,6.90
2018-08-19T19:06:45.860Z,6.90
2018-08-19T19:09:14.085Z,5.97
2018-08-19T19:11:42.292Z,7.00
2018-08-19T19:14:17.793Z,7.00
2018-08-19T19:16:48.804Z,6.67
2018-08-19T19:19:17.089Z,6.50
2018-08-19T19:21:50.542Z,7.33
2018-08-19T19:24:23.565Z,6.20
2018-08-19T19:26:51.841Z,6.67
2018-08-19T19:29:24.853Z,6.47
2018-08-19T19:31:53.973Z,6.73
2018-08-19T19:34:22.315Z,6.00
2018-08-19T19:36:50.445Z,6.90
2018-08-19T19:39:18.640Z,6.83
2018-08-19T19:41:49.941Z,6.90
2018-08-19T19:44:26.941Z,6.87
2018-08-19T19:46:55.132Z,7.20
2018-08-19T19:49:23.775Z,6.40
2018-08-19T19:51:57.349Z,6.83
2018-08-19T19:54:26.590Z,6.87
2018-08-19T19:56:54.849Z,6.40
2018-08-19T19:59:25.840Z,7.33
2018-08-19T20:01:54.068Z,7.27
2018-08-19T20:04:22.341Z,6.47
2018-08-19T20:09:25.074Z,6.27
2018-08-19T20:11:53.500Z,6.83
2018-08-19T20:14:21.745Z,7.13
2018-08-19T20:16:49.978Z,6.00
2018-08-19T20:19:18.173Z,6.57
2018-08-19T20:21:46.384Z,6.73
2018-08-19T20:24:14.628Z,7.00
2018-08-19T20:26:42.827Z,6.80
2018-08-19T20:29:11.058Z,6.87
2018-08-19T20:31:39.272Z,7.50
2018-08-19T20:34:07.517Z,7.20
2018-08-19T20:36:35.771Z,7.33
2018-08-19T20:39:06.464Z,7.10
2018-08-19T20:41:34.756Z,6.90
2018-08-19T20:44:03.016Z,6.87
2018-08-19T20:46:31.238Z,6.53
2018-08-19T20:48:59.453Z,7.10
2018-08-19T20:51:27.685Z,6.40
2018-08-19T20:53:55.921Z,7.00
2018-08-19T20:56:24.138Z,6.77
2018-08-19T20:58:52.338Z,7.17
2018-08-19T21:01:25.756Z,6.13
2018-08-19T21:03:54.493Z,7.43
2018-08-19T21:06:22.700Z,7.50
2018-08-19T21:08:51.360Z,7.77
2018-08-19T21:11:19.588Z,7.80
2018-08-19T21:13:47.880Z,7.30
2018-08-19T21:16:16.109Z,8.03
2018-08-19T21:18:44.334Z,7.20
2018-08-19T21:21:12.562Z,7.20
2018-08-19T21:23:40.792Z,6.90
2018-08-19T21:26:09.037Z,7.83
2018-08-19T21:28:37.242Z,7.47
2018-08-19T21:31:05.538Z,7.83
2018-08-19T21:33:33.736Z,8.10
2018-08-19T21:36:01.968Z,8.20
2018-08-19T21:38:30.188Z,7.40
2018-08-19T21:40:58.668Z,7.93
2018-08-19T21:43:28.808Z,7.53
2018-08-19T21:45:57.112Z,7.77
2018-08-19T21:48:25.344Z,7.73
2018-08-19T21:50:53.597Z,7.37
2018-08-19T21:53:21.821Z,7.17
2018-08-19T21:55:51.341Z,8.10
2018-08-19T21:58:19.616Z,7.70
2018-08-19T22:01:02.265Z,7.43
2018-08-19T22:03:35.973Z,7.33
2018-08-19T22:06:05.589Z,8.27
2018-08-19T22:08:33.820Z,8.03
2018-08-19T22:11:02.073Z,7.77
2018-08-19T22:13:30.303Z,8.30
2018-08-19T22:15:58.653Z,7.87
2018-08-19T22:18:29.541Z,7.97
2018-08-19T22:21:06.025Z,8.00
2018-08-19T22:23:40.444Z,8.33
2018-08-19T22:26:09.683Z,8.40
2018-08-19T22:28:38.216Z,8.53
2018-08-19T22:31:18.613Z,8.00
2018-08-19T22:33:48.105Z,7.87
2018-08-19T22:36:16.708Z,8.90
2018-08-19T22:38:44.933Z,8.73
2018-08-19T22:41:13.224Z,8.50
2018-08-19T22:43:41.512Z,8.97
2018-08-19T22:46:09.731Z,9.03
2018-08-19T22:48:40.084Z,8.43
2018-08-19T22:51:08.896Z,9.90
2018-08-19T22:53:37.117Z,9.63
2018-08-19T22:56:05.696Z,9.37
2018-08-19T22:58:34.340Z,9.27
2018-08-19T23:01:02.612Z,9.13
2018-08-19T23:03:30.909Z,9.57
2018-08-19T23:05:59.157Z,9.60
2018-08-19T23:08:29.473Z,9.17
2018-08-19T23:10:58.900Z,8.63
2018-08-19T23:13:38.509Z,8.63
2018-08-19T23:16:08.388Z,8.43
2018-08-19T23:18:37.076Z,8.50
2018-08-19T23:21:05.367Z,8.53
2018-08-19T23:23:33.624Z,9.10
2018-08-19T23:26:02.278Z,8.83
2018-08-19T23:28:30.497Z,8.10
2018-08-19T23:30:58.704Z,9.27
2018-08-19T23:33:26.936Z,9.07
2018-08-19T23:35:55.160Z,9.20
2018-08-19T23:38:23.396Z,9.10
2018-08-19T23:40:51.640Z,9.43
2018-08-19T23:43:19.928Z,8.73
2018-08-19T23:45:48.140Z,9.27
2018-08-19T23:48:16.388Z,8.60
2018-08-19T23:50:44.617Z,9.50
2018-08-19T23:53:12.861Z,8.77
2018-08-19T23:55:41.057Z,8.90
2018-08-19T23:58:09.411Z,8.90
